Time,TemperatureF,DewpointF,PressureIn,WindDirection,WindDirectionDegrees,WindSpeedMPH,WindSpeedGustMPH,Humidity,HourlyPrecipIn,Conditions,Clouds,dailyrainin,SoftwareType,DateUTC
2013-11-21 00:00:00,22.2,17.0,30.64,NNE,12,0.0,0.0,80,0.00,,---,0.00,VWS V14.01,2013-11-21 05:00:00,
2013-11-21 00:05:00,22.2,17.0,30.64,NNE,12,0.0,0.0,80,0.00,,---,0.00,VWS V14.01,2013-11-21 05:05:00,
2013-11-21 00:10:00,22.0,16.8,30.64,NNE,12,0.0,0.0,80,0.00,,---,0.00,VWS V14.01,2013-11-21 05:10:00,
2013-11-21 00:15:00,22.0,16.8,30.64,NNE,12,0.0,0.0,80,0.00,,---,0.00,VWS V14.01,2013-11-21 05:15:00,
2013-11-21 00:20:00,21.9,16.7,30.64,NNE,12,0.0,0.0,80,0.00,,---,0.00,VWS V14.01,2013-11-21 05:20:00,
2013-11-21 00:25:00,21.8,16.6,30.64,NNE,12,0.0,0.0,80,0.00,,---,0.00,VWS V14.01,2013-11-21 05:25:00,
2013-11-21 00:30:00,21.7,16.8,30.64,NNE,12,0.0,0.0,81,0.00,,---,0.00,VWS V14.01,2013-11-21 05:30:00,
2013-11-21 00:35:00,21.6,16.7,30.64,NNE,12,0.0,0.0,81,0.00,,---,0.00,VWS V14.01,2013-11-21 05:35:00,
2013-11-21 00:40:00,21.5,16.3,30.64,NNE,12,0.0,0.0,80,0.00,,---,0.00,VWS V14.01,2013-11-21 05:40:00,
2013-11-21 00:45:00,21.3,16.4,30.64,NNE,12,0.0,0.0,81,0.00,,---,0.00,VWS V14.01,2013-11-21 05:45:00,
2013-11-21 00:50:00,21.2,16.3,30.64,NNE,12,0.0,0.0,81,0.00,,---,0.00,VWS V14.01,2013-11-21 05:50:00,
2013-11-21 00:55:00,21.1,16.2,30.64,NNE,12,0.0,0.0,81,0.00,,---,0.00,VWS V14.01,2013-11-21 05:55:00,
2013-11-21 01:00:00,21.0,16.1,30.64,NNE,12,0.0,0.0,81,0.00,,---,0.00,VWS V14.01,2013-11-21 06:00:00,
2013-11-21 01:05:00,20.9,16.3,30.64,NNE,12,0.0,0.0,82,0.00,,---,0.00,VWS V14.01,2013-11-21 06:05:00,
2013-11-21 01:10:00,20.8,16.2,30.64,NNE,12,0.0,0.0,82,0.00,,---,0.00,VWS V14.01,2013-11-21 06:10:00,
2013-11-21 01:15:00,20.7,16.1,30.65,NNE,12,0.0,0.0,82,0.00,,---,0.00,VWS V14.01,2013-11-21 06:15:00,
2013-11-21 01:20:00,20.5,15.9,30.65,NNE,12,0.0,0.0,82,0.00,,---,0.00,VWS V14.01,2013-11-21 06:20:00,
2013-11-21 01:25:00,20.3,15.7,30.65,NNE,12,0.0,0.0,82,0.00,,---,0.00,VWS V14.01,2013-11-21 06:25:00,
2013-11-21 01:30:00,20.1,15.5,30.65,NNE,12,0.0,0.0,82,0.00,,---,0.00,VWS V14.01,2013-11-21 06:30:00,
2013-11-21 01:35:00,19.9,15.6,30.65,NNE,12,0.0,0.0,83,0.00,,---,0.00,VWS V14.01,2013-11-21 06:35:00,
2013-11-21 01:40:00,19.8,15.8,30.65,NNE,12,0.0,0.0,84,0.00,,---,0.00,VWS V14.01,2013-11-21 06:40:00,
2013-11-21 01:45:00,19.9,15.9,30.65,NNE,12,0.0,0.0,84,0.00,,---,0.00,VWS V14.01,2013-11-21 06:45:00,
2013-11-21 01:50:00,19.8,15.8,30.65,NNE,12,0.0,0.0,84,0.00,,---,0.00,VWS V14.01,2013-11-21 06:50:00,
2013-11-21 01:55:00,19.8,15.8,30.65,NNE,12,0.0,0.0,84,0.00,,---,0.00,VWS V14.01,2013-11-21 06:55:00,
2013-11-21 02:00:00,19.7,15.7,30.65,NNE,12,0.0,0.0,84,0.00,,---,0.00,VWS V14.01,2013-11-21 07:00:00,
2013-11-21 02:05:00,19.7,15.7,30.65,NNE,12,0.0,0.0,84,0.00,,---,0.00,VWS V14.01,2013-11-21 07:05:00,
2013-11-21 02:10:00,19.6,15.8,30.65,NNE,12,0.0,0.0,85,0.00,,---,0.00,VWS V14.01,2013-11-21 07:10:00,
2013-11-21 02:15:00,19.5,15.7,30.65,NNE,12,0.0,0.0,85,0.00,,---,0.00,VWS V14.01,2013-11-21 07:15:00,
2013-11-21 02:20:00,19.5,15.7,30.66,NNE,12,0.0,0.0,85,0.00,,---,0.00,VWS V14.01,2013-11-21 07:20:00,
2013-11-21 02:25:00,19.6,16.1,30.65,NNE,12,0.0,0.0,86,0.00,,---,0.00,VWS V14.01,2013-11-21 07:25:00,
2013-11-21 02:30:00,19.5,15.7,30.65,NNE,12,0.0,0.0,85,0.00,,---,0.00,VWS V14.01,2013-11-21 07:30:00,
2013-11-21 02:35:00,19.6,16.1,30.65,NNE,12,0.0,0.0,86,0.00,,---,0.00,VWS V14.01,2013-11-21 07:35:00,
2013-11-21 02:40:00,19.7,16.2,30.65,NNE,12,0.0,0.0,86,0.00,,---,0.00,VWS V14.01,2013-11-21 07:40:00,
2013-11-21 02:45:00,19.7,16.2,30.65,NNE,12,0.0,0.0,86,0.00,,---,0.00,VWS V14.01,2013-11-21 07:45:00,
2013-11-21 02:50:00,19.7,15.9,30.65,NNE,12,0.0,0.0,85,0.00,,---,0.00,VWS V14.01,2013-11-21 07:50:00,
2013-11-21 02:55:00,19.7,15.9,30.65,NNE,12,0.0,0.0,85,0.00,,---,0.00,VWS V14.01,2013-11-21 07:55:00,
2013-11-21 03:00:00,19.6,15.8,30.65,NNE,12,0.0,0.0,85,0.00,,---,0.00,VWS V14.01,2013-11-21 08:00:00,
2013-11-21 03:05:00,19.4,15.6,30.65,NNE,12,0.0,0.0,85,0.00,,---,0.00,VWS V14.01,2013-11-21 08:05:00,
2013-11-21 03:10:00,19.3,15.5,30.65,NNE,12,0.0,0.0,85,0.00,,---,0.00,VWS V14.01,2013-11-21 08:10:00,
2013-11-21 03:15:00,19.2,15.7,30.65,NNE,12,0.0,0.0,86,0.00,,---,0.00,VWS V14.01,2013-11-21 08:15:00,
2013-11-21 03:20:00,19.1,15.6,30.65,NNE,12,0.0,0.0,86,0.00,,---,0.00,VWS V14.01,2013-11-21 08:20:00,
2013-11-21 03:25:00,19.1,15.6,30.65,NNE,12,0.0,0.0,86,0.00,,---,0.00,VWS V14.01,2013-11-21 08:25:00,
2013-11-21 03:30:00,19.0,15.5,30.65,NNE,12,0.0,0.0,86,0.00,,---,0.00,VWS V14.01,2013-11-21 08:30:00,
2013-11-21 03:35:00,18.9,15.4,30.65,NNE,12,0.0,0.0,86,0.00,,---,0.00,VWS V14.01,2013-11-21 08:35:00,
2013-11-21 03:40:00,18.9,15.4,30.65,NNE,12,0.0,0.0,86,0.00,,---,0.00,VWS V14.01,2013-11-21 08:40:00,
2013-11-21 03:45:00,18.9,15.7,30.65,NNE,12,0.0,0.0,87,0.00,,---,0.00,VWS V14.01,2013-11-21 08:45:00,
2013-11-21 03:50:00,18.8,15.6,30.65,NNE,12,0.0,0.0,87,0.00,,---,0.00,VWS V14.01,2013-11-21 08:50:00,
2013-11-21 03:55:00,18.8,15.6,30.65,NNE,12,0.0,0.0,87,0.00,,---,0.00,VWS V14.01,2013-11-21 08:55:00,
2013-11-21 04:00:00,18.8,15.6,30.65,NNE,12,0.0,0.0,87,0.00,,---,0.00,VWS V14.01,2013-11-21 09:00:00,
2013-11-21 04:05:00,18.8,15.6,30.65,NNE,12,0.0,0.0,87,0.00,,---,0.00,VWS V14.01,2013-11-21 09:05:00,
2013-11-21 04:10:00,18.8,15.6,30.65,NNE,12,0.0,0.0,87,0.00,,---,0.00,VWS V14.01,2013-11-21 09:10:00,
2013-11-21 04:15:00,18.8,15.6,30.65,NNE,12,0.0,0.0,87,0.00,,---,0.00,VWS V14.01,2013-11-21 09:15:00,
2013-11-21 04:20:00,18.7,15.5,30.65,NNE,12,0.0,0.0,87,0.00,,---,0.00,VWS V14.01,2013-11-21 09:20:00,
2013-11-21 04:25:00,18.7,15.5,30.65,NNE,12,0.0,0.0,87,0.00,,---,0.00,VWS V14.01,2013-11-21 09:25:00,
2013-11-21 04:30:00,18.6,15.4,30.65,NNE,12,0.0,0.0,87,0.00,,---,0.00,VWS V14.01,2013-11-21 09:30:00,
2013-11-21 04:35:00,18.7,15.5,30.65,NNE,12,0.0,0.0,87,0.00,,---,0.00,VWS V14.01,2013-11-21 09:35:00,
2013-11-21 04:40:00,18.7,15.5,30.65,NNE,12,0.0,0.0,87,0.00,,---,0.00,VWS V14.01,2013-11-21 09:40:00,
2013-11-21 04:45:00,18.7,15.5,30.65,NNE,12,0.0,0.0,87,0.00,,---,0.00,VWS V14.01,2013-11-21 09:45:00,
2013-11-21 04:50:00,18.7,15.7,30.65,NNE,12,0.0,0.0,88,0.00,,---,0.00,VWS V14.01,2013-11-21 09:50:00,
2013-11-21 04:55:00,18.7,15.7,30.65,NNE,12,0.0,0.0,88,0.00,,---,0.00,VWS V14.01,2013-11-21 09:55:00,
2013-11-21 05:00:00,18.7,15.5,30.65,NNE,12,0.0,0.0,87,0.00,,---,0.00,VWS V14.01,2013-11-21 10:00:00,
2013-11-21 05:05:00,18.7,15.7,30.65,NNE,12,0.0,0.0,88,0.00,,---,0.00,VWS V14.01,2013-11-21 10:05:00,
2013-11-21 05:10:00,18.7,15.7,30.65,NNE,12,0.0,0.0,88,0.00,,---,0.00,VWS V14.01,2013-11-21 10:10:00,
2013-11-21 05:15:00,18.6,15.4,30.65,NNE,12,0.0,0.0,87,0.00,,---,0.00,VWS V14.01,2013-11-21 10:15:00,
2013-11-21 05:20:00,18.6,15.6,30.65,NNE,12,0.0,0.0,88,0.00,,---,0.00,VWS V14.01,2013-11-21 10:20:00,
2013-11-21 05:25:00,18.6,15.6,30.65,NNE,12,0.0,0.0,88,0.00,,---,0.00,VWS V14.01,2013-11-21 10:25:00,
2013-11-21 05:30:00,18.6,15.6,30.65,NNE,12,0.0,0.0,88,0.00,,---,0.00,VWS V14.01,2013-11-21 10:30:00,
2013-11-21 05:35:00,18.6,15.6,30.65,NNE,12,0.0,0.0,88,0.00,,---,0.00,VWS V14.01,2013-11-21 10:35:00,
2013-11-21 05:40:00,18.5,15.6,30.65,NNE,12,0.0,0.0,88,0.00,,---,0.00,VWS V14.01,2013-11-21 10:40:00,
2013-11-21 05:45:00,18.6,15.6,30.65,NNE,12,0.0,0.0,88,0.00,,---,0.00,VWS V14.01,2013-11-21 10:45:00,
2013-11-21 05:50:00,18.5,15.6,30.65,NNE,12,0.0,0.0,88,0.00,,---,0.00,VWS V14.01,2013-11-21 10:50:00,
2013-11-21 05:55:00,18.6,15.6,30.65,NNE,12,0.0,0.0,88,0.00,,---,0.00,VWS V14.01,2013-11-21 10:55:00,
2013-11-21 06:00:00,18.6,15.6,30.65,NNE,12,0.0,0.0,88,0.00,,---,0.00,VWS V14.01,2013-11-21 11:00:00,
2013-11-21 06:05:00,18.7,15.7,30.66,NNE,12,0.0,0.0,88,0.00,,---,0.00,VWS V14.01,2013-11-21 11:05:00,
2013-11-21 06:10:00,18.7,15.7,30.66,NNE,12,0.0,0.0,88,0.00,,---,0.00,VWS V14.01,2013-11-21 11:10:00,
2013-11-21 06:15:00,18.8,15.8,30.66,NNE,12,0.0,0.0,88,0.00,,---,0.00,VWS V14.01,2013-11-21 11:15:00,
2013-11-21 06:20:00,18.9,16.2,30.66,NNE,12,0.0,0.0,89,0.00,,---,0.00,VWS V14.01,2013-11-21 11:20:00,
2013-11-21 06:25:00,18.9,15.9,30.67,NNE,12,0.0,0.0,88,0.00,,---,0.00,VWS V14.01,2013-11-21 11:25:00,
2013-11-21 06:30:00,19.1,16.4,30.66,NNE,12,0.0,0.0,89,0.00,,---,0.00,VWS V14.01,2013-11-21 11:30:00,
2013-11-21 06:35:00,19.1,15.9,30.66,NNE,12,0.0,0.0,87,0.00,,---,0.00,VWS V14.01,2013-11-21 11:35:00,
2013-11-21 06:40:00,19.1,15.9,30.66,NNE,12,0.0,0.0,87,0.00,,---,0.00,VWS V14.01,2013-11-21 11:40:00,
2013-11-21 06:45:00,19.0,15.8,30.66,NNE,12,0.0,0.0,87,0.00,,---,0.00,VWS V14.01,2013-11-21 11:45:00,
2013-11-21 06:50:00,18.8,15.3,30.66,NNE,12,0.0,0.0,86,0.00,,---,0.00,VWS V14.01,2013-11-21 11:50:00,
2013-11-21 06:55:00,18.7,15.5,30.66,NNE,12,0.0,0.0,87,0.00,,---,0.00,VWS V14.01,2013-11-21 11:55:00,
2013-11-21 07:00:00,18.7,15.5,30.66,NNE,12,0.0,0.0,87,0.00,,---,0.00,VWS V14.01,2013-11-21 12:00:00,
2013-11-21 07:05:00,18.8,15.6,30.66,NNE,12,0.0,0.0,87,0.00,,---,0.00,VWS V14.01,2013-11-21 12:05:00,
2013-11-21 07:10:00,18.9,15.7,30.66,NNE,12,0.0,0.0,87,0.00,,---,0.00,VWS V14.01,2013-11-21 12:10:00,
2013-11-21 07:15:00,18.9,15.9,30.65,NNE,12,0.0,0.0,88,0.00,,---,0.00,VWS V14.01,2013-11-21 12:15:00,
2013-11-21 07:20:00,19.0,15.8,30.65,NNE,12,0.0,0.0,87,0.00,,---,0.00,VWS V14.01,2013-11-21 12:20:00,
2013-11-21 07:25:00,19.1,16.1,30.65,NNE,12,0.0,0.0,88,0.00,,---,0.00,VWS V14.01,2013-11-21 12:25:00,
2013-11-21 07:30:00,19.5,16.5,30.65,NNE,12,0.0,0.0,88,0.00,,---,0.00,VWS V14.01,2013-11-21 12:30:00,
2013-11-21 07:35:00,19.7,16.7,30.64,NNE,12,0.0,0.0,88,0.00,,---,0.00,VWS V14.01,2013-11-21 12:35:00,
2013-11-21 07:40:00,19.9,16.9,30.64,NNE,12,0.0,0.0,88,0.00,,---,0.00,VWS V14.01,2013-11-21 12:40:00,
2013-11-21 07:45:00,20.3,17.3,30.64,NNE,12,0.0,0.0,88,0.00,,---,0.00,VWS V14.01,2013-11-21 12:45:00,
2013-11-21 07:50:00,20.7,17.7,30.64,NNE,12,0.0,0.0,88,0.00,,---,0.00,VWS V14.01,2013-11-21 12:50:00,
2013-11-21 07:55:00,21.1,18.1,30.64,NNE,12,0.0,0.0,88,0.00,,---,0.00,VWS V14.01,2013-11-21 12:55:00,
2013-11-21 08:00:00,21.3,18.0,30.64,NNE,12,0.0,0.0,87,0.00,,---,0.00,VWS V14.01,2013-11-21 13:00:00,
2013-11-21 08:05:00,21.8,18.5,30.64,NNE,12,0.0,0.0,87,0.00,,---,0.00,VWS V14.01,2013-11-21 13:05:00,
2013-11-21 08:10:00,22.0,18.5,30.64,NNE,12,0.0,0.0,86,0.00,,---,0.00,VWS V14.01,2013-11-21 13:10:00,
2013-11-21 08:15:00,22.2,18.7,30.64,NNE,12,0.0,0.0,86,0.00,,---,0.00,VWS V14.01,2013-11-21 13:15:00,
2013-11-21 08:20:00,22.5,19.0,30.64,NNE,12,0.0,0.0,86,0.00,,---,0.00,VWS V14.01,2013-11-21 13:20:00,
2013-11-21 08:25:00,22.8,19.0,30.64,NNE,12,0.0,0.0,85,0.00,,---,0.00,VWS V14.01,2013-11-21 13:25:00,
2013-11-21 08:30:00,23.2,19.4,30.64,NNE,12,0.0,0.0,85,0.00,,---,0.00,VWS V14.01,2013-11-21 13:30:00,
2013-11-21 08:35:00,23.9,20.1,30.64,NNE,12,0.0,0.0,85,0.00,,---,0.00,VWS V14.01,2013-11-21 13:35:00,
2013-11-21 08:40:00,24.6,20.2,30.64,NNE,12,0.0,0.0,83,0.00,,---,0.00,VWS V14.01,2013-11-21 13:40:00,
2013-11-21 08:45:00,25.4,19.2,30.64,NNE,12,0.0,0.0,77,0.00,,---,0.00,VWS V14.01,2013-11-21 13:45:00,
2013-11-21 08:50:00,26.5,19.4,30.63,NNE,12,0.0,1.0,74,0.00,,---,0.00,VWS V14.01,2013-11-21 13:50:00,
2013-11-21 08:55:00,27.8,19.0,30.63,NNE,12,0.0,2.0,69,0.00,,---,0.00,VWS V14.01,2013-11-21 13:55:00,
2013-11-21 09:00:00,28.6,19.4,30.63,NNE,12,0.0,1.0,68,0.00,,---,0.00,VWS V14.01,2013-11-21 14:00:00,
2013-11-21 09:05:00,29.4,19.1,30.63,NNE,12,0.0,0.0,65,0.00,,---,0.00,VWS V14.01,2013-11-21 14:05:00,
2013-11-21 09:10:00,30.3,19.2,30.63,NNE,12,0.0,1.0,63,0.00,,---,0.00,VWS V14.01,2013-11-21 14:10:00,
2013-11-21 09:15:00,30.9,19.4,30.63,NNE,12,0.0,1.0,62,0.00,,---,0.00,VWS V14.01,2013-11-21 14:15:00,
2013-11-21 09:20:00,31.5,19.2,30.63,North,10,0.0,3.0,60,0.00,,---,0.00,VWS V14.01,2013-11-21 14:20:00,
2013-11-21 09:25:00,32.1,18.6,30.63,NNE,21,0.0,3.0,57,0.00,,---,0.00,VWS V14.01,2013-11-21 14:25:00,
2013-11-21 09:30:00,32.7,17.9,30.63,North,351,1.0,3.0,54,0.00,,---,0.00,VWS V14.01,2013-11-21 14:30:00,
2013-11-21 09:35:00,33.2,17.5,30.63,NNW,345,1.0,2.0,52,0.00,,---,0.00,VWS V14.01,2013-11-21 14:35:00,
2013-11-21 09:40:00,33.6,18.7,30.63,WNW,287,0.0,2.0,54,0.00,,---,0.00,VWS V14.01,2013-11-21 14:40:00,
2013-11-21 09:45:00,34.1,19.2,30.63,WNW,287,3.0,3.0,54,0.00,,---,0.00,VWS V14.01,2013-11-21 14:45:00,
2013-11-21 09:50:00,34.6,20.1,30.63,WNW,287,0.0,3.0,55,0.00,,---,0.00,VWS V14.01,2013-11-21 14:50:00,
2013-11-21 09:55:00,35.2,20.7,30.63,NNE,23,2.0,3.0,55,0.00,,---,0.00,VWS V14.01,2013-11-21 14:55:00,
2013-11-21 10:00:00,35.9,20.9,30.63,WNW,297,1.0,3.0,54,0.00,,---,0.00,VWS V14.01,2013-11-21 15:00:00,
2013-11-21 10:05:00,36.5,20.6,30.63,NNW,333,2.0,3.0,52,0.00,,---,0.00,VWS V14.01,2013-11-21 15:05:00,
2013-11-21 10:15:00,37.4,20.5,30.63,North,6,2.0,3.0,50,0.00,,---,0.00,VWS V14.01,2013-11-21 15:15:00,
2013-11-21 10:20:00,37.8,20.8,30.63,WSW,252,0.0,4.0,50,0.00,,---,0.00,VWS V14.01,2013-11-21 15:20:00,
2013-11-21 10:25:00,38.3,21.8,30.63,North,7,1.0,3.0,51,0.00,,---,0.00,VWS V14.01,2013-11-21 15:25:00,
2013-11-21 10:30:00,38.6,21.1,30.62,NW,305,0.0,5.0,49,0.00,,---,0.00,VWS V14.01,2013-11-21 15:30:00,
2013-11-21 10:35:00,39.1,21.6,30.62,North,10,3.0,6.0,49,0.00,,---,0.00,VWS V14.01,2013-11-21 15:35:00,
2013-11-21 10:40:00,39.6,23.0,30.62,WNW,292,3.0,6.0,51,0.00,,---,0.00,VWS V14.01,2013-11-21 15:40:00,
2013-11-21 10:45:00,40.2,23.5,30.61,NNE,15,5.0,5.0,51,0.00,,---,0.00,VWS V14.01,2013-11-21 15:45:00,
2013-11-21 10:50:00,40.6,23.4,30.61,West,271,0.0,5.0,50,0.00,,---,0.00,VWS V14.01,2013-11-21 15:50:00,
2013-11-21 10:55:00,41.2,24.9,30.61,NNE,15,2.0,4.0,52,0.00,,---,0.00,VWS V14.01,2013-11-21 15:55:00,
2013-11-21 11:05:00,41.9,23.7,30.60,West,272,5.0,5.0,48,0.00,,---,0.00,VWS V14.01,2013-11-21 16:05:00,
2013-11-21 11:10:00,41.8,24.1,30.60,ENE,65,0.0,5.0,49,0.00,,---,0.00,VWS V14.01,2013-11-21 16:10:00,
2013-11-21 11:15:00,42.0,24.2,30.59,WSW,249,4.0,7.0,49,0.00,,---,0.00,VWS V14.01,2013-11-21 16:15:00,
2013-11-21 11:20:00,42.2,24.9,30.59,SSE,151,0.0,5.0,50,0.00,,---,0.00,VWS V14.01,2013-11-21 16:20:00,
2013-11-21 11:25:00,42.5,25.2,30.59,ENE,57,2.0,6.0,50,0.00,,---,0.00,VWS V14.01,2013-11-21 16:25:00,
2013-11-21 11:30:00,42.8,25.5,30.59,SW,221,3.0,5.0,50,0.00,,---,0.00,VWS V14.01,2013-11-21 16:30:00,
2013-11-21 11:35:00,43.1,25.3,30.59,SW,235,1.0,6.0,49,0.00,,---,0.00,VWS V14.01,2013-11-21 16:35:00,
2013-11-21 11:40:00,43.2,24.9,30.58,NNE,23,0.0,7.0,48,0.00,,---,0.00,VWS V14.01,2013-11-21 16:40:00,
2013-11-21 11:45:00,43.4,25.5,30.58,SW,229,0.0,3.0,49,0.00,,---,0.00,VWS V14.01,2013-11-21 16:45:00,
2013-11-21 11:50:00,43.9,25.5,30.58,WNW,298,0.0,3.0,48,0.00,,---,0.00,VWS V14.01,2013-11-21 16:50:00,
2013-11-21 11:55:00,44.2,25.3,30.58,NNW,331,3.0,6.0,47,0.00,,---,0.00,VWS V14.01,2013-11-21 16:55:00,
2013-11-21 12:00:00,43.8,24.9,30.58,NW,308,3.0,6.0,47,0.00,,---,0.00,VWS V14.01,2013-11-21 17:00:00,
2013-11-21 12:05:00,43.6,24.2,30.58,NNW,333,2.0,10.0,46,0.00,,---,0.00,VWS V14.01,2013-11-21 17:05:00,
2013-11-21 12:10:00,43.7,24.3,30.57,NNW,332,3.0,6.0,46,0.00,,---,0.00,VWS V14.01,2013-11-21 17:10:00,
2013-11-21 12:15:00,43.9,25.5,30.57,NE,40,1.0,7.0,48,0.00,,---,0.00,VWS V14.01,2013-11-21 17:15:00,
2013-11-21 12:25:00,44.5,24.5,30.57,SW,215,1.0,5.0,45,0.00,,---,0.00,VWS V14.01,2013-11-21 17:25:00,
2013-11-21 12:30:00,44.7,23.6,30.57,North,352,0.0,5.0,43,0.00,,---,0.00,VWS V14.01,2013-11-21 17:30:00,
2013-11-21 12:35:00,45.1,24.5,30.56,North,350,2.0,7.0,44,0.00,,---,0.00,VWS V14.01,2013-11-21 17:35:00,
2013-11-21 12:40:00,45.4,25.3,30.56,North,358,1.0,4.0,45,0.00,,---,0.00,VWS V14.01,2013-11-21 17:40:00,
2013-11-21 12:45:00,45.2,24.0,30.56,North,353,5.0,6.0,43,0.00,,---,0.00,VWS V14.01,2013-11-21 17:45:00,
2013-11-21 12:50:00,45.0,25.0,30.56,North,359,0.0,6.0,45,0.00,,---,0.00,VWS V14.01,2013-11-21 17:50:00,
2013-11-21 13:00:00,45.6,23.3,30.55,SSW,194,3.0,7.0,41,0.00,,---,0.00,VWS V14.01,2013-11-21 18:00:00,
2013-11-21 13:05:00,45.5,23.2,30.55,SSW,197,1.0,6.0,41,0.00,,---,0.00,VWS V14.01,2013-11-21 18:05:00,
2013-11-21 13:15:00,45.9,23.0,30.54,SW,229,0.0,4.0,40,0.00,,---,0.00,VWS V14.01,2013-11-21 18:15:00,
2013-11-21 13:20:00,46.3,22.7,30.54,NNE,17,0.0,5.0,39,0.00,,---,0.00,VWS V14.01,2013-11-21 18:20:00,
2013-11-21 13:25:00,46.3,23.3,30.53,NNE,17,0.0,6.0,40,0.00,,---,0.00,VWS V14.01,2013-11-21 18:25:00,
2013-11-21 13:30:00,46.2,23.2,30.53,SW,223,0.0,5.0,40,0.00,,---,0.00,VWS V14.01,2013-11-21 18:30:00,
2013-11-21 13:35:00,46.3,22.7,30.53,West,262,1.0,5.0,39,0.00,,---,0.00,VWS V14.01,2013-11-21 18:35:00,
2013-11-21 13:40:00,46.6,23.0,30.53,North,354,1.0,3.0,39,0.00,,---,0.00,VWS V14.01,2013-11-21 18:40:00,
2013-11-21 13:45:00,46.8,21.9,30.53,WSW,246,2.0,9.0,37,0.00,,---,0.00,VWS V14.01,2013-11-21 18:45:00,
2013-11-21 13:50:00,46.7,20.5,30.52,WSW,258,1.0,9.0,35,0.00,,---,0.00,VWS V14.01,2013-11-21 18:50:00,
2013-11-21 13:55:00,46.5,21.0,30.52,WNW,285,0.0,2.0,36,0.00,,---,0.00,VWS V14.01,2013-11-21 18:55:00,
2013-11-21 14:00:00,46.1,20.0,30.52,WSW,255,1.0,6.0,35,0.00,,---,0.00,VWS V14.01,2013-11-21 19:00:00,
2013-11-21 14:05:00,45.7,20.3,30.52,SW,217,1.0,4.0,36,0.00,,---,0.00,VWS V14.01,2013-11-21 19:05:00,
2013-11-21 14:10:00,45.3,19.3,30.51,WNW,296,0.0,4.0,35,0.00,,---,0.00,VWS V14.01,2013-11-21 19:10:00,
2013-11-21 14:15:00,45.2,19.9,30.51,SSE,162,0.0,2.0,36,0.00,,---,0.00,VWS V14.01,2013-11-21 19:15:00,
2013-11-21 14:20:00,45.1,20.4,30.51,South,186,0.0,4.0,37,0.00,,---,0.00,VWS V14.01,2013-11-21 19:20:00,
2013-11-21 14:25:00,45.1,20.4,30.50,South,169,1.0,3.0,37,0.00,,---,0.00,VWS V14.01,2013-11-21 19:25:00,
2013-11-21 14:30:00,45.2,20.5,30.50,SW,229,0.0,3.0,37,0.00,,---,0.00,VWS V14.01,2013-11-21 19:30:00,
2013-11-21 14:35:00,45.5,21.4,30.50,SE,133,0.0,3.0,38,0.00,,---,0.00,VWS V14.01,2013-11-21 19:35:00,
2013-11-21 14:40:00,45.8,21.0,30.50,SW,221,3.0,5.0,37,0.00,,---,0.00,VWS V14.01,2013-11-21 19:40:00,
2013-11-21 14:45:00,45.8,21.0,30.50,SSW,204,2.0,5.0,37,0.00,,---,0.00,VWS V14.01,2013-11-21 19:45:00,
2013-11-21 14:50:00,45.7,20.9,30.50,SSW,200,0.0,4.0,37,0.00,,---,0.00,VWS V14.01,2013-11-21 19:50:00,
2013-11-21 14:55:00,45.7,20.9,30.50,WSW,238,0.0,3.0,37,0.00,,---,0.00,VWS V14.01,2013-11-21 19:55:00,
2013-11-21 15:00:00,45.8,21.6,30.50,WNW,286,2.0,3.0,38,0.00,,---,0.00,VWS V14.01,2013-11-21 20:00:00,
2013-11-21 15:05:00,45.8,21.0,30.50,NNW,333,2.0,4.0,37,0.00,,---,0.00,VWS V14.01,2013-11-21 20:05:00,
2013-11-21 15:10:00,45.7,20.9,30.50,NW,319,0.0,4.0,37,0.00,,---,0.00,VWS V14.01,2013-11-21 20:10:00,
2013-11-21 15:15:00,45.6,21.5,30.50,NW,311,0.0,7.0,38,0.00,,---,0.00,VWS V14.01,2013-11-21 20:15:00,
2013-11-21 15:20:00,45.6,21.5,30.50,WNW,291,0.0,5.0,38,0.00,,---,0.00,VWS V14.01,2013-11-21 20:20:00,
2013-11-21 15:25:00,45.5,21.4,30.50,West,266,0.0,4.0,38,0.00,,---,0.00,VWS V14.01,2013-11-21 20:25:00,
2013-11-21 15:30:00,45.4,21.3,30.50,WSW,246,0.0,2.0,38,0.00,,---,0.00,VWS V14.01,2013-11-21 20:30:00,
2013-11-21 15:35:00,45.2,22.9,30.50,WSW,246,0.0,0.0,41,0.00,,---,0.00,VWS V14.01,2013-11-21 20:35:00,
2013-11-21 15:40:00,44.8,22.5,30.50,SE,129,0.0,1.0,41,0.00,,---,0.00,VWS V14.01,2013-11-21 20:40:00,
2013-11-21 15:45:00,44.3,23.8,30.50,SE,129,0.0,0.0,44,0.00,,---,0.00,VWS V14.01,2013-11-21 20:45:00,
2013-11-21 15:50:00,43.6,23.1,30.50,SE,129,0.0,0.0,44,0.00,,---,0.00,VWS V14.01,2013-11-21 20:50:00,
2013-11-21 15:55:00,42.9,23.0,30.50,SE,129,0.0,0.0,45,0.00,,---,0.00,VWS V14.01,2013-11-21 20:55:00,
2013-11-21 16:00:00,42.5,24.7,30.50,SE,129,0.0,0.0,49,0.00,,---,0.00,VWS V14.01,2013-11-21 21:00:00,
2013-11-21 16:05:00,42.0,24.7,30.50,SE,129,0.0,0.0,50,0.00,,---,0.00,VWS V14.01,2013-11-21 21:05:00,
2013-11-21 16:10:00,41.7,24.5,30.50,SE,129,0.0,0.0,50,0.00,,---,0.00,VWS V14.01,2013-11-21 21:10:00,
2013-11-21 16:15:00,41.3,24.5,30.49,SE,129,0.0,0.0,51,0.00,,---,0.00,VWS V14.01,2013-11-21 21:15:00,
2013-11-21 16:20:00,41.0,25.2,30.50,SE,129,0.0,0.0,53,0.00,,---,0.00,VWS V14.01,2013-11-21 21:20:00,
2013-11-21 16:25:00,40.7,24.9,30.50,SE,129,0.0,0.0,53,0.00,,---,0.00,VWS V14.01,2013-11-21 21:25:00,
2013-11-21 16:30:00,40.4,24.6,30.49,SE,129,0.0,0.0,53,0.00,,---,0.00,VWS V14.01,2013-11-21 21:30:00,
2013-11-21 16:35:00,40.1,25.2,30.50,SE,129,0.0,0.0,55,0.00,,---,0.00,VWS V14.01,2013-11-21 21:35:00,
2013-11-21 16:40:00,39.9,25.1,30.49,SE,129,0.0,0.0,55,0.00,,---,0.00,VWS V14.01,2013-11-21 21:40:00,
2013-11-21 16:45:00,39.7,24.9,30.49,SE,129,0.0,0.0,55,0.00,,---,0.00,VWS V14.01,2013-11-21 21:45:00,
2013-11-21 16:50:00,39.4,24.6,30.49,SE,129,0.0,0.0,55,0.00,,---,0.00,VWS V14.01,2013-11-21 21:50:00,
2013-11-21 16:55:00,39.1,24.7,30.49,SE,129,0.0,0.0,56,0.00,,---,0.00,VWS V14.01,2013-11-21 21:55:00,
2013-11-21 17:00:00,38.7,24.8,30.49,SE,129,0.0,0.0,57,0.00,,---,0.00,VWS V14.01,2013-11-21 22:00:00,
2013-11-21 17:05:00,38.4,24.5,30.49,SE,129,0.0,0.0,57,0.00,,---,0.00,VWS V14.01,2013-11-21 22:05:00,
2013-11-21 17:10:00,38.1,24.2,30.49,SE,129,0.0,0.0,57,0.00,,---,0.00,VWS V14.01,2013-11-21 22:10:00,
2013-11-21 17:15:00,37.8,24.4,30.49,SE,129,0.0,0.0,58,0.00,,---,0.00,VWS V14.01,2013-11-21 22:15:00,
2013-11-21 17:20:00,37.6,24.6,30.49,SE,129,0.0,0.0,59,0.00,,---,0.00,VWS V14.01,2013-11-21 22:20:00,
2013-11-21 17:25:00,37.4,24.4,30.50,SE,129,0.0,0.0,59,0.00,,---,0.00,VWS V14.01,2013-11-21 22:25:00,
2013-11-21 17:30:00,37.2,24.6,30.49,SE,129,0.0,0.0,60,0.00,,---,0.00,VWS V14.01,2013-11-21 22:30:00,
2013-11-21 17:35:00,37.0,24.4,30.49,SE,129,0.0,0.0,60,0.00,,---,0.00,VWS V14.01,2013-11-21 22:35:00,
2013-11-21 17:40:00,36.9,24.7,30.50,SE,129,0.0,0.0,61,0.00,,---,0.00,VWS V14.01,2013-11-21 22:40:00,
2013-11-21 17:45:00,36.8,24.6,30.49,SE,129,0.0,0.0,61,0.00,,---,0.00,VWS V14.01,2013-11-21 22:45:00,
2013-11-21 17:50:00,36.7,24.5,30.49,SE,129,0.0,0.0,61,0.00,,---,0.00,VWS V14.01,2013-11-21 22:50:00,
2013-11-21 17:55:00,36.4,24.2,30.49,SE,129,0.0,0.0,61,0.00,,---,0.00,VWS V14.01,2013-11-21 22:55:00,
2013-11-21 18:00:00,36.1,24.0,30.49,SE,129,0.0,0.0,61,0.00,,---,0.00,VWS V14.01,2013-11-21 23:00:00,
2013-11-21 18:05:00,35.9,24.2,30.49,SE,129,0.0,0.0,62,0.00,,---,0.00,VWS V14.01,2013-11-21 23:05:00,
2013-11-21 18:10:00,35.6,24.3,30.49,SE,129,0.0,0.0,63,0.00,,---,0.00,VWS V14.01,2013-11-21 23:10:00,
2013-11-21 18:15:00,35.4,24.1,30.48,SE,129,0.0,0.0,63,0.00,,---,0.00,VWS V14.01,2013-11-21 23:15:00,
2013-11-21 18:20:00,35.3,24.7,30.49,SE,129,0.0,0.0,65,0.00,,---,0.00,VWS V14.01,2013-11-21 23:20:00,
2013-11-21 18:25:00,35.4,25.2,30.49,SE,129,0.0,0.0,66,0.00,,---,0.00,VWS V14.01,2013-11-21 23:25:00,
2013-11-21 18:30:00,35.5,24.9,30.49,SE,129,0.0,0.0,65,0.00,,---,0.00,VWS V14.01,2013-11-21 23:30:00,
2013-11-21 18:35:00,35.6,25.0,30.49,SE,129,0.0,0.0,65,0.00,,---,0.00,VWS V14.01,2013-11-21 23:35:00,
2013-11-21 18:40:00,35.6,25.0,30.49,SE,129,0.0,0.0,65,0.00,,---,0.00,VWS V14.01,2013-11-21 23:40:00,
2013-11-21 18:45:00,35.7,25.5,30.48,SE,129,0.0,0.0,66,0.00,,---,0.00,VWS V14.01,2013-11-21 23:45:00,
2013-11-21 18:50:00,35.6,25.4,30.48,SE,129,0.0,0.0,66,0.00,,---,0.00,VWS V14.01,2013-11-21 23:50:00,
2013-11-21 18:55:00,35.5,25.3,30.48,SE,129,0.0,0.0,66,0.00,,---,0.00,VWS V14.01,2013-11-21 23:55:00,
2013-11-21 19:00:00,35.4,25.2,30.48,SE,129,0.0,0.0,66,0.00,,---,0.00,VWS V14.01,2013-11-22 00:00:00,
2013-11-21 19:10:00,35.2,25.4,30.48,SE,129,0.0,0.0,67,0.00,,---,0.00,VWS V14.01,2013-11-22 00:10:00,
2013-11-21 19:15:00,35.1,25.3,30.48,SE,129,0.0,0.0,67,0.00,,---,0.00,VWS V14.01,2013-11-22 00:15:00,
2013-11-21 19:20:00,35.1,25.3,30.48,SE,129,0.0,0.0,67,0.00,,---,0.00,VWS V14.01,2013-11-22 00:20:00,
2013-11-21 19:25:00,35.1,25.3,30.48,SE,129,0.0,0.0,67,0.00,,---,0.00,VWS V14.01,2013-11-22 00:25:00,
2013-11-21 19:30:00,35.1,25.3,30.48,SE,129,0.0,1.0,67,0.00,,---,0.00,VWS V14.01,2013-11-22 00:30:00,
2013-11-21 19:35:00,35.1,25.3,30.48,SE,129,0.0,0.0,67,0.00,,---,0.00,VWS V14.01,2013-11-22 00:35:00,
2013-11-21 19:40:00,35.1,25.3,30.47,SE,129,0.0,0.0,67,0.00,,---,0.00,VWS V14.01,2013-11-22 00:40:00,
2013-11-21 19:45:00,35.1,26.0,30.47,SE,129,0.0,0.0,69,0.00,,---,0.00,VWS V14.01,2013-11-22 00:45:00,
2013-11-21 19:50:00,35.2,25.7,30.47,SE,129,0.0,0.0,68,0.00,,---,0.00,VWS V14.01,2013-11-22 00:50:00,
2013-11-21 19:55:00,35.3,25.8,30.47,SE,129,0.0,0.0,68,0.00,,---,0.00,VWS V14.01,2013-11-22 00:55:00,
2013-11-21 20:00:00,35.4,25.5,30.47,SE,129,0.0,0.0,67,0.00,,---,0.00,VWS V14.01,2013-11-22 01:00:00,
2013-11-21 20:05:00,35.6,26.1,30.46,SE,129,0.0,0.0,68,0.00,,---,0.00,VWS V14.01,2013-11-22 01:05:00,
2013-11-21 20:10:00,35.7,26.2,30.46,SE,129,0.0,0.0,68,0.00,,---,0.00,VWS V14.01,2013-11-22 01:10:00,
2013-11-21 20:15:00,36.1,26.9,30.46,SE,129,0.0,0.0,69,0.00,,---,0.00,VWS V14.01,2013-11-22 01:15:00,
2013-11-21 20:20:00,36.6,26.0,30.46,SSW,194,0.0,2.0,65,0.00,,---,0.00,VWS V14.01,2013-11-22 01:20:00,
2013-11-21 20:25:00,37.0,26.3,30.45,SSW,194,0.0,0.0,65,0.00,,---,0.00,VWS V14.01,2013-11-22 01:25:00,
2013-11-21 20:30:00,37.4,26.4,30.45,SSW,194,0.0,2.0,64,0.00,,---,0.00,VWS V14.01,2013-11-22 01:30:00,
2013-11-21 20:35:00,37.7,27.0,30.45,SSW,194,0.0,0.0,65,0.00,,---,0.00,VWS V14.01,2013-11-22 01:35:00,
2013-11-21 20:40:00,37.9,26.8,30.45,South,190,0.0,1.0,64,0.00,,---,0.00,VWS V14.01,2013-11-22 01:40:00,
2013-11-21 20:45:00,38.4,26.5,30.45,NNW,338,0.0,1.0,62,0.00,,---,0.00,VWS V14.01,2013-11-22 01:45:00,
2013-11-21 20:50:00,38.7,26.4,30.44,NNW,338,0.0,1.0,61,0.00,,---,0.00,VWS V14.01,2013-11-22 01:50:00,
2013-11-21 20:55:00,38.7,26.8,30.44,NNW,338,0.0,0.0,62,0.00,,---,0.00,VWS V14.01,2013-11-22 01:55:00,
2013-11-21 21:00:00,38.6,27.1,30.44,NNW,338,0.0,1.0,63,0.00,,---,0.00,VWS V14.01,2013-11-22 02:00:00,
2013-11-21 21:05:00,38.5,26.6,30.44,NNW,338,0.0,0.0,62,0.00,,---,0.00,VWS V14.01,2013-11-22 02:05:00,
2013-11-21 21:10:00,38.3,26.8,30.44,NNW,338,0.0,0.0,63,0.00,,---,0.00,VWS V14.01,2013-11-22 02:10:00,
2013-11-21 21:15:00,38.2,26.7,30.44,NNW,338,0.0,1.0,63,0.00,,---,0.00,VWS V14.01,2013-11-22 02:15:00,
2013-11-21 21:20:00,38.1,26.6,30.44,NNW,338,0.0,0.0,63,0.00,,---,0.00,VWS V14.01,2013-11-22 02:20:00,
2013-11-21 21:25:00,38.0,26.9,30.44,NNW,338,0.0,0.0,64,0.00,,---,0.00,VWS V14.01,2013-11-22 02:25:00,
2013-11-21 21:30:00,37.9,26.8,30.44,NNW,338,0.0,0.0,64,0.00,,---,0.00,VWS V14.01,2013-11-22 02:30:00,
2013-11-21 21:35:00,37.9,26.8,30.44,NNW,338,0.0,1.0,64,0.00,,---,0.00,VWS V14.01,2013-11-22 02:35:00,
2013-11-21 21:40:00,38.0,27.3,30.44,NNW,338,0.0,1.0,65,0.00,,---,0.00,VWS V14.01,2013-11-22 02:40:00,
2013-11-21 21:45:00,38.2,27.9,30.44,NNW,338,1.0,1.0,66,0.00,,---,0.00,VWS V14.01,2013-11-22 02:45:00,
2013-11-21 21:50:00,38.3,27.6,30.44,NNW,338,0.0,1.0,65,0.00,,---,0.00,VWS V14.01,2013-11-22 02:50:00,
2013-11-21 21:55:00,38.3,27.6,30.43,NNW,338,0.0,0.0,65,0.00,,---,0.00,VWS V14.01,2013-11-22 02:55:00,
2013-11-21 22:00:00,38.2,27.5,30.43,NNW,338,0.0,0.0,65,0.00,,---,0.00,VWS V14.01,2013-11-22 03:00:00,
2013-11-21 22:05:00,38.2,27.9,30.43,NNW,338,0.0,1.0,66,0.00,,---,0.00,VWS V14.01,2013-11-22 03:05:00,
2013-11-21 22:10:00,38.3,28.0,30.43,NNW,338,0.0,0.0,66,0.00,,---,0.00,VWS V14.01,2013-11-22 03:10:00,
2013-11-21 22:15:00,38.4,28.0,30.42,SE,128,0.0,2.0,66,0.00,,---,0.00,VWS V14.01,2013-11-22 03:15:00,
2013-11-21 22:20:00,38.6,28.2,30.42,SE,128,0.0,0.0,66,0.00,,---,0.00,VWS V14.01,2013-11-22 03:20:00,
2013-11-21 22:25:00,38.6,28.6,30.42,SE,128,0.0,1.0,67,0.00,,---,0.00,VWS V14.01,2013-11-22 03:25:00,
2013-11-21 22:30:00,38.6,28.6,30.43,SE,128,0.0,1.0,67,0.00,,---,0.00,VWS V14.01,2013-11-22 03:30:00,
2013-11-21 22:35:00,38.7,28.7,30.43,SE,128,0.0,0.0,67,0.00,,---,0.00,VWS V14.01,2013-11-22 03:35:00,
2013-11-21 22:40:00,38.8,28.8,30.43,North,2,0.0,2.0,67,0.00,,---,0.00,VWS V14.01,2013-11-22 03:40:00,
2013-11-21 22:45:00,39.1,28.7,30.43,South,185,0.0,3.0,66,0.00,,---,0.00,VWS V14.01,2013-11-22 03:45:00,
2013-11-21 22:50:00,39.3,28.9,30.43,SSE,161,0.0,2.0,66,0.00,,---,0.00,VWS V14.01,2013-11-22 03:50:00,
2013-11-21 23:00:00,39.6,29.6,30.42,NNE,13,0.0,2.0,67,0.00,,---,0.00,VWS V14.01,2013-11-22 04:00:00,
2013-11-21 23:05:00,39.7,29.7,30.42,ESE,123,0.0,1.0,67,0.00,,---,0.00,VWS V14.01,2013-11-22 04:05:00,
2013-11-21 23:10:00,39.8,29.8,30.41,ESE,123,0.0,1.0,67,0.00,,---,0.00,VWS V14.01,2013-11-22 04:10:00,
2013-11-21 23:15:00,39.8,29.8,30.41,ESE,123,1.0,1.0,67,0.00,,---,0.00,VWS V14.01,2013-11-22 04:15:00,
2013-11-21 23:20:00,39.7,29.7,30.41,ESE,123,0.0,1.0,67,0.00,,---,0.00,VWS V14.01,2013-11-22 04:20:00,
2013-11-21 23:25:00,39.4,29.7,30.41,ESE,123,0.0,1.0,68,0.00,,---,0.00,VWS V14.01,2013-11-22 04:25:00,
2013-11-21 23:30:00,39.3,30.0,30.40,ESE,121,0.0,2.0,69,0.00,,---,0.00,VWS V14.01,2013-11-22 04:30:00,
2013-11-21 23:35:00,39.1,30.2,30.40,ESE,112,0.0,1.0,70,0.00,,---,0.00,VWS V14.01,2013-11-22 04:35:00,
2013-11-21 23:40:00,38.9,30.0,30.40,ESE,112,0.0,0.0,70,0.00,,---,0.00,VWS V14.01,2013-11-22 04:40:00,
2013-11-21 23:45:00,38.7,30.1,30.40,ESE,103,0.0,1.0,71,0.00,,---,0.00,VWS V14.01,2013-11-22 04:45:00,
2013-11-21 23:50:00,38.6,30.0,30.39,ESE,103,0.0,0.0,71,0.00,,---,0.00,VWS V14.01,2013-11-22 04:50:00,
2013-11-21 23:55:00,38.3,30.1,30.39,West,276,0.0,3.0,72,0.00,,---,0.00,VWS V14.01,2013-11-22 04:55:00,